KCDH/CDH METAR and TAF weather

Enter ICAO airport designator
Station Type Date Time Source
KCDH METAR 2022/01/27 23:55 UTC NOAA

KCDH 272355Z AUTO 33004KT 10SM OVC065 07/M07 A3027 RMK AO2


Station Type Date Time Source
KCDH Decoded METAR 2022/01/27 23:55 UTC NOAA

Camden / Harrell Field, AR, United States (KCDH) 33-37N 092-46W
Jan 27, 2022 - 06:55 PM EST / 2022.01.27 2355 UTC
Wind: from the NNW (330 degrees) at 5 MPH (4 KT):0
Visibility: 10 mile(s):0
Sky conditions: overcast
Temperature: 44 F (7 C)
Dew Point: 19 F (-7 C)
Relative Humidity: 36%
Pressure (altimeter): 30.27 in. Hg (1025 hPa)
ob: KCDH 272355Z AUTO 33004KT 10SM OVC065 07/M07 A3027 RMK AO2
cycle: 0

Station Type Date Time Source
KCDH TAF UTC NOAA

Error!

Example: see airport list